| time (UTC) | temp F | wind direction | speed MPH | gust MPH | rain 1hr in | rain 24hr in | rain mn in | humidity % | barometer mb |
| 20260506230031 | 60 | 255 | 1.0 | 5.0 | 0.00 | 0.09 | 0.09 | 94 | 1007.9 |
| 20260506225519 | 60 | 185 | 1.0 | 5.0 | 0.00 | 0.09 | 0.09 | 94 | 1007.8 |
| 20260506225016 | 60 | 205 | 1.0 | 5.0 | 0.00 | 0.09 | 0.09 | 94 | 1007.7 |
| 20260506224531 | 60 | 178 | 2.0 | 5.0 | 0.00 | 0.09 | 0.09 | 94 | 1007.7 |
| 20260506224014 | 59 | 217 | 2.0 | 6.0 | 0.00 | 0.09 | 0.09 | 94 | 1007.7 |
| 20260506223517 | 59 | 188 | 2.0 | 6.0 | 0.00 | 0.09 | 0.09 | 94 | 1007.6 |
| 20260506223032 | 59 | 212 | 1.0 | 4.0 | 0.00 | 0.09 | 0.09 | 94 | 1007.5 |
| 20260506222517 | 59 | 178 | 1.0 | 5.0 | 0.00 | 0.09 | 0.09 | 94 | 1007.5 |
| 20260506222014 | 59 | 188 | 2.0 | 6.0 | 0.00 | 0.09 | 0.09 | 94 | 1007.5 |
| 20260506221530 | 59 | 190 | 2.0 | 6.0 | 0.00 | 0.09 | 0.09 | 94 | 1007.6 |
| 20260506221018 | 59 | 212 | 1.0 | 4.0 | 0.00 | 0.09 | 0.09 | 94 | 1007.4 |
| 20260506220514 | 59 | 247 | 1.0 | 4.0 | 0.00 | 0.09 | 0.09 | 94 | 1007.5 |
| 20260506220032 | 59 | 254 | 2.0 | 5.0 | 0.00 | 0.09 | 0.09 | 94 | 1007.4 |
| 20260506215517 | 59 | 232 | 2.0 | 5.0 | 0.00 | 0.09 | 0.09 | 93 | 1007.4 |
| 20260506215015 | 59 | 250 | 2.0 | 6.0 | 0.00 | 0.09 | 0.09 | 94 | 1007.4 |
| 20260506214531 | 59 | 219 | 2.0 | 6.0 | 0.00 | 0.09 | 0.09 | 94 | 1007.3 |
| 20260506214016 | 59 | 0 | 2.0 | 8.0 | 0.00 | 0.09 | 0.09 | 94 | 1007.3 |
| 20260506213515 | 59 | 111 | 3.0 | 8.0 | 0.00 | 0.09 | 0.09 | 93 | 1007.3 |
| 20260506213030 | 59 | 221 | 2.0 | 6.0 | 0.00 | 0.09 | 0.09 | 93 | 1007.3 |
| 20260506212514 | 59 | 137 | 2.0 | 8.0 | 0.00 | 0.09 | 0.09 | 93 | 1007.3 |
| 20260506212014 | 60 | 165 | 2.0 | 8.0 | 0.00 | 0.09 | 0.09 | 93 | 1007.3 |
| 20260506211532 | 60 | 196 | 1.0 | 5.0 | 0.01 | 0.09 | 0.09 | 94 | 1007.3 |
| 20260506211015 | 60 | 238 | 1.0 | 6.0 | 0.02 | 0.09 | 0.09 | 94 | 1007.2 |
| 20260506210516 | 59 | 178 | 2.0 | 9.0 | 0.02 | 0.09 | 0.09 | 94 | 1007.1 |
| 20260506210037 | 59 | 201 | 3.0 | 9.0 | 0.02 | 0.09 | 0.09 | 94 | 1007.1 |
| 20260506205516 | 59 | 200 | 3.0 | 8.0 | 0.02 | 0.09 | 0.09 | 93 | 1007.1 |
| 20260506205015 | 59 | 171 | 2.0 | 8.0 | 0.02 | 0.09 | 0.09 | 93 | 1007.0 |
| 20260506204532 | 59 | 142 | 2.0 | 7.0 | 0.02 | 0.09 | 0.09 | 93 | 1007.0 |
| 20260506204016 | 59 | 215 | 3.0 | 7.0 | 0.03 | 0.09 | 0.09 | 94 | 1007.1 |
| 20260506203516 | 59 | 212 | 2.0 | 9.0 | 0.03 | 0.09 | 0.09 | 93 | 1007.1 |
| 20260506203042 | 59 | 0 | 3.0 | 9.0 | 0.04 | 0.09 | 0.09 | 93 | 1007.1 |
| 20260506202514 | 58 | 190 | 3.0 | 9.0 | 0.04 | 0.09 | 0.09 | 93 | 1007.2 |
| 20260506202013 | 58 | 265 | 3.0 | 7.0 | 0.05 | 0.09 | 0.09 | 93 | 1007.3 |
| 20260506201531 | 58 | 226 | 2.0 | 6.0 | 0.04 | 0.08 | 0.08 | 93 | 1007.3 |
| 20260506201017 | 58 | 207 | 2.0 | 8.0 | 0.03 | 0.07 | 0.07 | 93 | 1007.3 |
| 20260506200516 | 58 | 210 | 3.0 | 8.0 | 0.03 | 0.07 | 0.07 | 93 | 1007.3 |
| 20260506200032 | 58 | 165 | 2.0 | 10.0 | 0.03 | 0.07 | 0.07 | 93 | 1007.4 |
| 20260506195514 | 58 | 167 | 2.0 | 10.0 | 0.03 | 0.07 | 0.07 | 93 | 1007.5 |
| 20260506195016 | 58 | 128 | 3.0 | 7.0 | 0.03 | 0.07 | 0.07 | 92 | 1007.5 |
| 20260506194530 | 58 | 225 | 2.0 | 11.0 | 0.03 | 0.07 | 0.07 | 92 | 1007.7 |
| 20260506194014 | 58 | 142 | 2.0 | 11.0 | 0.02 | 0.06 | 0.06 | 92 | 1007.9 |
| 20260506193514 | 58 | 158 | 3.0 | 8.0 | 0.02 | 0.06 | 0.06 | 92 | 1008.0 |
| 20260506193029 | 58 | 221 | 3.0 | 7.0 | 0.01 | 0.05 | 0.05 | 91 | 1008.0 |
| 20260506192516 | 58 | 200 | 3.0 | 6.0 | 0.01 | 0.05 | 0.05 | 91 | 1008.0 |
| 20260506192017 | 58 | 203 | 3.0 | 7.0 | 0.00 | 0.04 | 0.04 | 91 | 1008.1 |
| 20260506191534 | 59 | 166 | 1.0 | 9.0 | 0.00 | 0.04 | 0.04 | 91 | 1008.1 |
| 20260506191014 | 59 | 183 | 3.0 | 9.0 | 0.00 | 0.04 | 0.04 | 91 | 1008.0 |
| 20260506190519 | 59 | 188 | 3.0 | 8.0 | 0.00 | 0.04 | 0.04 | 91 | 1007.9 |
| 20260506190031 | 59 | 223 | 3.0 | 7.0 | 0.00 | 0.04 | 0.04 | 91 | 1007.9 |
| 20260506185517 | 59 | 146 | 1.0 | 7.0 | 0.00 | 0.04 | 0.04 | 91 | 1008.0 |
| 20260506185015 | 59 | 178 | 2.0 | 7.0 | 0.01 | 0.04 | 0.04 | 91 | 1008.1 |
| 20260506184530 | 59 | 265 | 2.0 | 7.0 | 0.01 | 0.04 | 0.04 | 91 | 1008.1 |
| 20260506184014 | 59 | 190 | 2.0 | 6.0 | 0.01 | 0.04 | 0.04 | 91 | 1008.0 |
| 20260506183516 | 59 | 232 | 3.0 | 8.0 | 0.02 | 0.04 | 0.04 | 91 | 1008.1 |
| 20260506183030 | 59 | 178 | 2.0 | 8.0 | 0.02 | 0.04 | 0.04 | 91 | 1008.2 |
| 20260506182516 | 59 | 238 | 3.0 | 8.0 | 0.02 | 0.04 | 0.04 | 91 | 1008.3 |
| 20260506182014 | 60 | 265 | 2.0 | 9.0 | 0.02 | 0.04 | 0.04 | 91 | 1008.3 |
| 20260506181534 | 59 | 147 | 2.0 | 9.0 | 0.02 | 0.04 | 0.04 | 91 | 1008.5 |
| 20260506181014 | 59 | 163 | 2.0 | 7.0 | 0.02 | 0.04 | 0.04 | 91 | 1008.6 |
| 20260506180519 | 59 | 140 | 2.0 | 7.0 | 0.02 | 0.04 | 0.04 | 91 | 1008.7 |
| 20260506180038 | 59 | 265 | 2.0 | 6.0 | 0.03 | 0.04 | 0.04 | 91 | 1008.9 |
| 20260506175515 | 59 | 146 | 2.0 | 7.0 | 0.03 | 0.04 | 0.04 | 91 | 1008.8 |
| 20260506175017 | 59 | 225 | 3.0 | 7.0 | 0.02 | 0.03 | 0.03 | 90 | 1008.9 |
| 20260506174532 | 59 | 223 | 3.0 | 9.0 | 0.02 | 0.03 | 0.03 | 90 | 1008.6 |
| 20260506174015 | 59 | 201 | 3.0 | 11.0 | 0.03 | 0.03 | 0.03 | 89 | 1008.6 |
| 20260506173516 | 59 | 209 | 5.0 | 11.0 | 0.02 | 0.02 | 0.02 | 89 | 1008.7 |
| 20260506173032 | 59 | 221 | 4.0 | 11.0 | 0.02 | 0.02 | 0.02 | 89 | 1008.6 |
| 20260506172514 | 59 | 171 | 4.0 | 11.0 | 0.02 | 0.02 | 0.02 | 89 | 1008.6 |
| 20260506172017 | 59 | 147 | 3.0 | 9.0 | 0.02 | 0.02 | 0.02 | 89 | 1008.7 |
| 20260506171546 | 60 | 167 | 2.0 | 7.0 | 0.02 | 0.02 | 0.02 | 89 | 1008.8 |
| 20260506171015 | 60 | 173 | 3.0 | 10.0 | 0.02 | 0.02 | 0.02 | 88 | 1008.9 |
| 20260506170516 | 60 | 221 | 4.0 | 10.0 | 0.02 | 0.02 | 0.02 | 87 | 1008.8 |
| 20260506170037 | 60 | 198 | 1.0 | 10.0 | 0.01 | 0.01 | 0.01 | 87 | 1008.9 |
| 20260506165514 | 60 | 158 | 2.0 | 7.0 | 0.01 | 0.01 | 0.01 | 86 | 1008.9 |
| 20260506165016 | 61 | 0 | 2.0 | 6.0 | 0.01 | 0.01 | 0.01 | 85 | 1008.9 |
| 20260506164531 | 61 | 137 | 1.0 | 6.0 | 0.00 | 0.00 | 0.00 | 84 | 1009.1 |
| 20260506164017 | 62 | 123 | 1.0 | 9.0 | 0.00 | 0.00 | 0.00 | 83 | 1009.3 |
| 20260506163513 | 62 | 338 | 3.0 | 9.0 | 0.00 | 0.00 | 0.00 | 82 | 1009.3 |
| 20260506163041 | 62 | 134 | 1.0 | 9.0 | 0.00 | 0.00 | 0.00 | 81 | 1009.7 |
| 20260506162515 | 63 | 316 | 2.0 | 9.0 | 0.00 | 0.00 | 0.00 | 80 | 1009.8 |
| 20260506162016 | 63 | 223 | 2.0 | 9.0 | 0.00 | 0.00 | 0.00 | 79 | 1009.9 |
| 20260506161539 | 63 | 217 | 2.0 | 9.0 | 0.00 | 0.00 | 0.00 | 79 | 1009.9 |
| 20260506161019 | 63 | 215 | 4.0 | 9.0 | 0.00 | 0.00 | 0.00 | 78 | 1009.9 |
| 20260506160515 | 63 | 232 | 2.0 | 7.0 | 0.00 | 0.00 | 0.00 | 78 | 1009.6 |
| 20260506160031 | 63 | 149 | 4.0 | 7.0 | 0.00 | 0.00 | 0.00 | 77 | 1009.7 |
| 20260506155518 | 64 | 250 | 2.0 | 8.0 | 0.00 | 0.00 | 0.00 | 77 | 1009.8 |
| 20260506155014 | 64 | 149 | 2.0 | 8.0 | 0.00 | 0.00 | 0.00 | 76 | 1009.8 |
| 20260506154533 | 64 | 166 | 3.0 | 8.0 | 0.00 | 0.00 | 0.00 | 76 | 1009.9 |
| 20260506154017 | 64 | 162 | 2.0 | 9.0 | 0.00 | 0.00 | 0.00 | 76 | 1010.0 |
| 20260506153517 | 64 | 126 | 3.0 | 10.0 | 0.00 | 0.00 | 0.00 | 75 | 1010.1 |
| 20260506153031 | 64 | 166 | 3.0 | 10.0 | 0.00 | 0.00 | 0.00 | 76 | 1010.1 |
| 20260506152518 | 64 | 191 | 5.0 | 11.0 | 0.00 | 0.00 | 0.00 | 75 | 1010.2 |
| 20260506152016 | 65 | 211 | 5.0 | 11.0 | 0.00 | 0.00 | 0.00 | 75 | 1010.3 |
| 20260506151536 | 65 | 213 | 4.0 | 9.0 | 0.00 | 0.00 | 0.00 | 74 | 1010.4 |
| 20260506151014 | 65 | 134 | 4.0 | 11.0 | 0.00 | 0.00 | 0.00 | 75 | 1010.3 |
| 20260506150515 | 65 | 211 | 4.0 | 11.0 | 0.00 | 0.00 | 0.00 | 75 | 1010.2 |
| 20260506150036 | 65 | 191 | 4.0 | 12.0 | 0.00 | 0.00 | 0.00 | 75 | 1010.4 |
| 20260506145515 | 64 | 191 | 4.0 | 12.0 | 0.00 | 0.00 | 0.00 | 76 | 1010.3 |
| 20260506145017 | 64 | 223 | 5.0 | 12.0 | 0.00 | 0.00 | 0.00 | 75 | 1010.0 |
| 20260506144532 | 64 | 115 | 5.0 | 11.0 | 0.00 | 0.00 | 0.00 | 75 | 1010.1 |
| 20260506144015 | 64 | 202 | 4.0 | 11.0 | 0.00 | 0.00 | 0.00 | 76 | 1010.1 |
| 20260506143516 | 64 | 189 | 4.0 | 11.0 | 0.00 | 0.00 | 0.00 | 75 | 1010.2 |
| 20260506143030 | 64 | 157 | 3.0 | 10.0 | 0.00 | 0.00 | 0.00 | 76 | 1010.2 |
| 20260506142516 | 64 | 38 | 4.0 | 10.0 | 0.00 | 0.00 | 0.00 | 76 | 1010.2 |
| 20260506142015 | 64 | 225 | 3.0 | 9.0 | 0.00 | 0.00 | 0.00 | 76 | 1010.2 |
| 20260506141530 | 64 | 188 | 4.0 | 10.0 | 0.00 | 0.00 | 0.00 | 76 | 1010.4 |
| 20260506141015 | 64 | 221 | 4.0 | 11.0 | 0.00 | 0.00 | 0.00 | 77 | 1010.3 |
| 20260506140516 | 64 | 157 | 4.0 | 11.0 | 0.00 | 0.00 | 0.00 | 77 | 1010.5 |
| 20260506140030 | 64 | 203 | 5.0 | 12.0 | 0.00 | 0.00 | 0.00 | 77 | 1010.4 |
| 20260506135519 | 64 | 200 | 6.0 | 12.0 | 0.00 | 0.00 | 0.00 | 77 | 1010.4 |
| 20260506135024 | 63 | 203 | 4.0 | 12.0 | 0.00 | 0.00 | 0.00 | 78 | 1010.4 |
| 20260506134605 | 63 | 153 | 6.0 | 12.0 | 0.00 | 0.00 | 0.00 | 78 | 1010.2 |
| 20260506134015 | 63 | 160 | 6.0 | 11.0 | 0.00 | 0.00 | 0.00 | 79 | 1010.3 |
| 20260506133513 | 63 | 242 | 5.0 | 9.0 | 0.00 | 0.00 | 0.00 | 79 | 1010.4 |
| 20260506133033 | 62 | 229 | 2.0 | 6.0 | 0.00 | 0.00 | 0.00 | 80 | 1010.4 |
| 20260506132515 | 62 | 238 | 2.0 | 8.0 | 0.00 | 0.00 | 0.00 | 81 | 1010.4 |
| 20260506132016 | 62 | 160 | 3.0 | 10.0 | 0.00 | 0.00 | 0.00 | 81 | 1010.4 |
| 20260506131532 | 61 | 186 | 3.0 | 11.0 | 0.00 | 0.00 | 0.00 | 82 | 1010.2 |
| 20260506131015 | 61 | 211 | 3.0 | 11.0 | 0.00 | 0.00 | 0.00 | 82 | 1010.1 |
| 20260506130523 | 61 | 142 | 5.0 | 11.0 | 0.00 | 0.00 | 0.00 | 82 | 1010.0 |
| 20260506130034 | 61 | 265 | 3.0 | 9.0 | 0.00 | 0.00 | 0.00 | 83 | 1010.0 |
| 20260506125513 | 61 | 169 | 3.0 | 9.0 | 0.00 | 0.00 | 0.00 | 82 | 1010.0 |
| 20260506125015 | 61 | 156 | 2.0 | 9.0 | 0.00 | 0.00 | 0.00 | 83 | 1010.1 |
| 20260506124530 | 61 | 182 | 3.0 | 9.0 | 0.00 | 0.00 | 0.00 | 83 | 1010.1 |
| 20260506124016 | 61 | 144 | 3.0 | 9.0 | 0.00 | 0.00 | 0.00 | 83 | 1010.1 |
| 20260506123516 | 61 | 234 | 3.0 | 9.0 | 0.00 | 0.00 | 0.00 | 83 | 1010.2 |
| 20260506123030 | 61 | 225 | 3.0 | 12.0 | 0.00 | 0.00 | 0.00 | 83 | 1010.3 |
| 20260506122515 | 61 | 184 | 3.0 | 12.0 | 0.00 | 0.00 | 0.00 | 83 | 1010.3 |
| 20260506122014 | 60 | 205 | 3.0 | 10.0 | 0.00 | 0.00 | 0.00 | 84 | 1010.4 |
| 20260506121529 | 60 | 209 | 3.0 | 10.0 | 0.00 | 0.00 | 0.00 | 84 | 1010.6 |
| 20260506121016 | 60 | 126 | 4.0 | 10.0 | 0.00 | 0.00 | 0.00 | 85 | 1010.7 |
| 20260506120516 | 60 | 291 | 3.0 | 8.0 | 0.00 | 0.00 | 0.00 | 85 | 1010.7 |
| 20260506120031 | 59 | 207 | 3.0 | 8.0 | 0.00 | 0.00 | 0.00 | 86 | 1010.8 |
| 20260506115516 | 59 | 201 | 3.0 | 9.0 | 0.00 | 0.00 | 0.00 | 86 | 1010.7 |
| 20260506115014 | 59 | 213 | 3.0 | 9.0 | 0.00 | 0.00 | 0.00 | 86 | 1010.9 |
| 20260506114539 | 58 | 232 | 3.0 | 8.0 | 0.00 | 0.00 | 0.00 | 87 | 1010.8 |
| 20260506114015 | 58 | 130 | 3.0 | 9.0 | 0.00 | 0.00 | 0.00 | 88 | 1010.7 |
| 20260506113514 | 58 | 221 | 3.0 | 9.0 | 0.00 | 0.00 | 0.00 | 88 | 1010.8 |
| 20260506113037 | 57 | 195 | 4.0 | 8.0 | 0.00 | 0.00 | 0.00 | 88 | 1010.6 |
| 20260506112517 | 57 | 221 | 2.0 | 8.0 | 0.00 | 0.00 | 0.00 | 88 | 1010.5 |
| 20260506112016 | 57 | 200 | 3.0 | 7.0 | 0.00 | 0.00 | 0.00 | 89 | 1010.3 |
| 20260506111530 | 57 | 221 | 2.0 | 7.0 | 0.00 | 0.00 | 0.00 | 89 | 1010.3 |
| 20260506111015 | 56 | 225 | 2.0 | 7.0 | 0.00 | 0.00 | 0.00 | 89 | 1010.3 |
| 20260506110518 | 56 | 205 | 2.0 | 6.0 | 0.00 | 0.00 | 0.00 | 89 | 1010.5 |
| 20260506110033 | 56 | 217 | 3.0 | 8.0 | 0.00 | 0.00 | 0.00 | 89 | 1010.5 |
| 20260506105515 | 56 | 221 | 2.0 | 9.0 | 0.00 | 0.00 | 0.00 | 90 | 1010.5 |
| 20260506105013 | 56 | 216 | 3.0 | 9.0 | 0.00 | 0.00 | 0.00 | 90 | 1010.5 |
| 20260506104530 | 56 | 187 | 3.0 | 8.0 | 0.00 | 0.00 | 0.00 | 90 | 1010.2 |
| 20260506104016 | 56 | 190 | 2.0 | 7.0 | 0.00 | 0.00 | 0.00 | 90 | 1010.2 |
| 20260506103514 | 56 | 208 | 3.0 | 7.0 | 0.00 | 0.00 | 0.00 | 90 | 1010.2 |
| 20260506103032 | 55 | 205 | 3.0 | 7.0 | 0.00 | 0.00 | 0.00 | 90 | 1010.2 |
| 20260506102516 | 55 | 141 | 2.0 | 6.0 | 0.00 | 0.00 | 0.00 | 90 | 1010.0 |
| 20260506102013 | 55 | 208 | 2.0 | 6.0 | 0.00 | 0.00 | 0.00 | 90 | 1010.1 |
| 20260506101530 | 55 | 196 | 3.0 | 6.0 | 0.00 | 0.00 | 0.00 | 90 | 1010.0 |
| 20260506101014 | 55 | 225 | 3.0 | 6.0 | 0.00 | 0.00 | 0.00 | 90 | 1010.1 |
| 20260506100516 | 55 | 178 | 2.0 | 7.0 | 0.00 | 0.00 | 0.00 | 90 | 1010.1 |
| 20260506100035 | 55 | 201 | 2.0 | 7.0 | 0.00 | 0.00 | 0.00 | 90 | 1010.1 |
| 20260506095517 | 55 | 166 | 2.0 | 7.0 | 0.00 | 0.00 | 0.00 | 90 | 1010.1 |
| 20260506095017 | 55 | 219 | 1.0 | 7.0 | 0.00 | 0.00 | 0.00 | 90 | 1010.2 |
| 20260506094531 | 55 | 234 | 2.0 | 7.0 | 0.00 | 0.00 | 0.00 | 90 | 1010.1 |
| 20260506094016 | 55 | 208 | 2.0 | 7.0 | 0.00 | 0.00 | 0.00 | 90 | 1010.0 |
| 20260506093516 | 55 | 166 | 2.0 | 7.0 | 0.00 | 0.00 | 0.00 | 90 | 1010.0 |
| 20260506093034 | 55 | 247 | 2.0 | 7.0 | 0.00 | 0.00 | 0.00 | 90 | 1010.0 |
| 20260506092517 | 55 | 219 | 3.0 | 7.0 | 0.00 | 0.00 | 0.00 | 90 | 1010.1 |
| 20260506092016 | 55 | 232 | 2.0 | 7.0 | 0.00 | 0.00 | 0.00 | 90 | 1010.0 |
| 20260506091530 | 55 | 208 | 2.0 | 7.0 | 0.00 | 0.00 | 0.00 | 89 | 1010.1 |
| 20260506091015 | 55 | 241 | 2.0 | 7.0 | 0.00 | 0.00 | 0.00 | 89 | 1010.1 |
| 20260506090514 | 55 | 210 | 1.0 | 7.0 | 0.00 | 0.00 | 0.00 | 89 | 1010.1 |
| 20260506090032 | 55 | 178 | 2.0 | 8.0 | 0.00 | 0.00 | 0.00 | 89 | 1010.2 |
| 20260506085514 | 55 | 221 | 2.0 | 8.0 | 0.00 | 0.00 | 0.00 | 89 | 1010.3 |
| 20260506085017 | 55 | 142 | 2.0 | 7.0 | 0.00 | 0.00 | 0.00 | 89 | 1010.3 |
| 20260506084530 | 55 | 218 | 1.0 | 6.0 | 0.00 | 0.00 | 0.00 | 89 | 1010.3 |
| 20260506084018 | 55 | 225 | 2.0 | 7.0 | 0.00 | 0.00 | 0.00 | 89 | 1010.3 |
| 20260506083517 | 55 | 157 | 2.0 | 8.0 | 0.00 | 0.00 | 0.00 | 89 | 1010.3 |
| 20260506083031 | 55 | 212 | 2.0 | 8.0 | 0.00 | 0.00 | 0.00 | 89 | 1010.4 |
| 20260506082516 | 55 | 111 | 2.0 | 6.0 | 0.00 | 0.00 | 0.00 | 89 | 1010.3 |
| 20260506082015 | 55 | 225 | 2.0 | 6.0 | 0.00 | 0.00 | 0.00 | 88 | 1010.4 |
| 20260506081532 | 55 | 234 | 2.0 | 6.0 | 0.00 | 0.00 | 0.00 | 88 | 1010.4 |
| 20260506081016 | 55 | 137 | 1.0 | 5.0 | 0.00 | 0.00 | 0.00 | 88 | 1010.4 |
| 20260506080516 | 55 | 0 | 1.0 | 5.0 | 0.00 | 0.00 | 0.00 | 88 | 1010.4 |
| 20260506073521 | 56 | 249 | 2.0 | 9.0 | 0.00 | 0.00 | 0.00 | 87 | 1010.3 |
| 20260506073033 | 56 | 165 | 1.0 | 6.0 | 0.00 | 0.00 | 0.00 | 87 | 1010.4 |
| 20260506072515 | 56 | 219 | 1.0 | 9.0 | 0.00 | 0.00 | 0.00 | 87 | 1010.5 |
| 20260506072016 | 56 | 225 | 2.0 | 9.0 | 0.00 | 0.00 | 0.00 | 87 | 1010.6 |
| 20260506071534 | 56 | 115 | 2.0 | 7.0 | 0.00 | 0.00 | 0.00 | 87 | 1010.7 |
| 20260506071017 | 56 | 153 | 1.0 | 7.0 | 0.00 | 0.00 | 0.00 | 87 | 1010.7 |
| 20260506070515 | 56 | 234 | 2.0 | 7.0 | 0.00 | 0.00 | 0.00 | 86 | 1010.6 |
| 20260506062516 | 57 | 0 | 3.0 | 7.0 | 0.00 | 0.00 | 0.00 | 85 | 1010.7 |
| 20260506062018 | 57 | 225 | 2.0 | 7.0 | 0.00 | 0.00 | 0.00 | 84 | 1010.6 |
| 20260506061537 | 57 | 207 | 2.0 | 7.0 | 0.00 | 0.00 | 0.00 | 84 | 1010.7 |
| 20260506061017 | 57 | 234 | 2.0 | 7.0 | 0.00 | 0.00 | 0.00 | 84 | 1010.6 |
| 20260506060516 | 57 | 165 | 1.0 | 6.0 | 0.00 | 0.00 | 0.00 | 84 | 1010.5 |
| 20260506051016 | 58 | 148 | 2.0 | 6.0 | 0.00 | 0.00 | 0.00 | 82 | 1011.0 |
| 20260506050516 | 58 | 137 | 1.0 | 6.0 | 0.00 | 0.00 | 0.00 | 81 | 1011.1 |
| 20260506045016 | 58 | 51 | 1.0 | 5.0 | 0.00 | 0.00 | 0.00 | 79 | 1011.2 |
| 20260506044530 | 59 | 110 | 1.0 | 4.0 | 0.00 | 0.00 | 0.00 | 79 | 1011.2 |
| 20260506044020 | 59 | 132 | 2.0 | 4.0 | 0.00 | 0.00 | 0.00 | 78 | 1011.2 |
| 20260506043514 | 59 | 158 | 1.0 | 6.0 | 0.00 | 0.00 | 0.00 | 78 | 1011.3 |
| 20260506043030 | 59 | 212 | 1.0 | 6.0 | 0.00 | 0.00 | 0.00 | 77 | 1011.2 |
| 20260506042514 | 59 | 68 | 1.0 | 6.0 | 0.00 | 0.00 | 0.00 | 77 | 1011.2 |
| 20260506042017 | 59 | 137 | 0.0 | 4.0 | 0.00 | 0.00 | 0.00 | 76 | 1011.3 |
| 20260506041537 | 60 | 168 | 1.0 | 4.0 | 0.00 | 0.00 | 0.00 | 76 | 1011.2 |
| 20260506041015 | 60 | 0 | 1.0 | 4.0 | 0.00 | 0.00 | 0.00 | 75 | 1011.2 |
| 20260506040519 | 60 | 67 | 1.0 | 4.0 | 0.00 | 0.00 | 0.00 | 75 | 1011.1 |
| 20260506040035 | 60 | 178 | 1.0 | 4.0 | 0.00 | 0.00 | 0.00 | 74 | 1011.1 |
| 20260506035516 | 61 | 236 | 1.0 | 5.0 | 0.00 | 0.00 | 0.00 | 73 | 1011.2 |
| 20260506035016 | 61 | 108 | 1.0 | 5.0 | 0.00 | 0.00 | 0.00 | 73 | 1011.3 |
| 20260506034530 | 61 | 142 | 0.0 | 5.0 | 0.00 | 0.00 | 0.00 | 72 | 1011.3 |
| 20260506034014 | 62 | 165 | 1.0 | 6.0 | 0.00 | 0.00 | 0.00 | 72 | 1011.4 |
| 20260506033514 | 62 | 162 | 1.0 | 6.0 | 0.00 | 0.00 | 0.00 | 71 | 1011.3 |
| 20260506033032 | 62 | 175 | 2.0 | 6.0 | 0.00 | 0.00 | 0.00 | 70 | 1011.2 |
| 20260506032516 | 63 | 226 | 2.0 | 7.0 | 0.00 | 0.00 | 0.00 | 70 | 1011.1 |
| 20260506032016 | 63 | 175 | 2.0 | 7.0 | 0.00 | 0.00 | 0.00 | 70 | 1011.1 |
| 20260506031538 | 63 | 137 | 2.0 | 7.0 | 0.00 | 0.00 | 0.00 | 70 | 1010.9 |
| 20260506031016 | 63 | 201 | 1.0 | 7.0 | 0.00 | 0.00 | 0.00 | 69 | 1010.9 |
| 20260506030518 | 63 | 228 | 3.0 | 7.0 | 0.00 | 0.00 | 0.00 | 69 | 1010.9 |
| 20260506030036 | 63 | 173 | 2.0 | 7.0 | 0.00 | 0.00 | 0.00 | 69 | 1010.9 |
| 20260506025514 | 63 | 234 | 2.0 | 6.0 | 0.00 | 0.00 | 0.00 | 69 | 1011.1 |
| 20260506025016 | 64 | 93 | 3.0 | 12.0 | 0.00 | 0.00 | 0.00 | 68 | 1011.0 |
| 20260506024542 | 64 | 219 | 3.0 | 12.0 | 0.00 | 0.00 | 0.00 | 68 | 1011.0 |
| 20260506024014 | 64 | 182 | 5.0 | 12.0 | 0.00 | 0.00 | 0.00 | 67 | 1011.0 |
| 20260506023514 | 64 | 205 | 3.0 | 12.0 | 0.00 | 0.00 | 0.00 | 67 | 1011.1 |
| 20260506023032 | 65 | 214 | 3.0 | 12.0 | 0.00 | 0.00 | 0.00 | 66 | 1011.1 |
| 20260506022514 | 65 | 250 | 4.0 | 10.0 | 0.00 | 0.00 | 0.00 | 66 | 1011.1 |
| 20260506022016 | 65 | 178 | 4.0 | 12.0 | 0.00 | 0.00 | 0.00 | 66 | 1011.0 |
| 20260506021530 | 65 | 167 | 4.0 | 13.0 | 0.00 | 0.00 | 0.00 | 66 | 1011.0 |
| 20260506021015 | 65 | 203 | 6.0 | 13.0 | 0.00 | 0.00 | 0.00 | 66 | 1010.9 |
| 20260506020515 | 65 | 201 | 4.0 | 12.0 | 0.00 | 0.00 | 0.00 | 66 | 1011.0 |
| 20260506020032 | 65 | 225 | 5.0 | 12.0 | 0.00 | 0.00 | 0.00 | 66 | 1010.9 |
| 20260506015517 | 65 | 223 | 5.0 | 15.0 | 0.00 | 0.00 | 0.00 | 66 | 1010.8 |
| 20260506015016 | 65 | 213 | 6.0 | 15.0 | 0.00 | 0.00 | 0.00 | 66 | 1010.8 |
| 20260506014530 | 65 | 171 | 6.0 | 14.0 | 0.00 | 0.00 | 0.00 | 66 | 1010.9 |
| 20260506014015 | 65 | 226 | 6.0 | 14.0 | 0.00 | 0.00 | 0.00 | 66 | 1010.6 |
| 20260506013515 | 65 | 234 | 4.0 | 14.0 | 0.00 | 0.00 | 0.00 | 66 | 1010.7 |
| 20260506013033 | 65 | 221 | 6.0 | 15.0 | 0.00 | 0.00 | 0.00 | 66 | 1010.6 |
| 20260506012515 | 65 | 221 | 6.0 | 15.0 | 0.00 | 0.00 | 0.00 | 66 | 1010.6 |
| 20260506012017 | 65 | 175 | 5.0 | 14.0 | 0.00 | 0.00 | 0.00 | 66 | 1010.6 |
| 20260506011557 | 65 | 250 | 6.0 | 14.0 | 0.00 | 0.00 | 0.00 | 66 | 1010.6 |
| 20260506011016 | 65 | 257 | 5.0 | 14.0 | 0.00 | 0.00 | 0.00 | 66 | 1010.5 |
| 20260506010514 | 65 | 187 | 7.0 | 14.0 | 0.00 | 0.00 | 0.00 | 66 | 1010.4 |
| 20260506010031 | 65 | 119 | 8.0 | 13.0 | 0.00 | 0.00 | 0.00 | 66 | 1010.1 |
| 20260506005516 | 65 | 184 | 5.0 | 12.0 | 0.00 | 0.00 | 0.00 | 67 | 1010.2 |
| 20260506005015 | 65 | 265 | 4.0 | 15.0 | 0.00 | 0.00 | 0.00 | 67 | 1010.1 |
| 20260506004533 | 65 | 175 | 6.0 | 15.0 | 0.00 | 0.00 | 0.00 | 67 | 1010.0 |
| 20260506004017 | 64 | 190 | 5.0 | 14.0 | 0.00 | 0.00 | 0.00 | 67 | 1010.0 |
| 20260506003516 | 64 | 277 | 5.0 | 14.0 | 0.00 | 0.00 | 0.00 | 67 | 1009.9 |
| 20260506003030 | 64 | 240 | 4.0 | 14.0 | 0.00 | 0.00 | 0.00 | 67 | 1010.0 |
| 20260506002518 | 64 | 221 | 4.0 | 12.0 | 0.00 | 0.00 | 0.00 | 67 | 1009.7 |
| 20260506002016 | 64 | 218 | 4.0 | 12.0 | 0.00 | 0.00 | 0.00 | 67 | 1009.7 |
| 20260506001532 | 65 | 282 | 3.0 | 8.0 | 0.00 | 0.00 | 0.00 | 66 | 1009.7 |
| 20260506001014 | 65 | 138 | 2.0 | 8.0 | 0.00 | 0.00 | 0.00 | 66 | 1009.7 |
| 20260506000521 | 65 | 219 | 3.0 | 8.0 | 0.00 | 0.00 | 0.00 | 66 | 1009.7 |
| 20260505235514 | 66 | 265 | 2.0 | 8.0 | 0.00 | 0.00 | 0.00 | 65 | 1009.6 |
| 20260505235016 | 66 | 238 | 3.0 | 8.0 | 0.00 | 0.00 | 0.00 | 65 | 1009.6 |
| 20260505234541 | 66 | 205 | 2.0 | 8.0 | 0.00 | 0.00 | 0.00 | 64 | 1009.6 |
| 20260505234016 | 66 | 225 | 3.0 | 8.0 | 0.00 | 0.00 | 0.00 | 64 | 1009.6 |
| 20260505233516 | 67 | 211 | 3.0 | 9.0 | 0.00 | 0.00 | 0.00 | 63 | 1009.4 |
| 20260505233033 | 67 | 175 | 3.0 | 17.0 | 0.00 | 0.00 | 0.00 | 63 | 1009.2 |
| 20260505232514 | 67 | 184 | 5.0 | 17.0 | 0.00 | 0.00 | 0.00 | 62 | 1009.1 |
| 20260505232016 | 67 | 149 | 5.0 | 14.0 | 0.00 | 0.00 | 0.00 | 62 | 1009.1 |
| 20260505231533 | 68 | 237 | 5.0 | 11.0 | 0.00 | 0.00 | 0.00 | 62 | 1009.1 |
| 20260505231016 | 68 | 228 | 4.0 | 11.0 | 0.00 | 0.00 | 0.00 | 62 | 1009.0 |
| 20260505230514 | 68 | 196 | 6.0 | 12.0 | 0.00 | 0.00 | 0.00 | 61 | 1008.9 |